Terminal Aerodrome Forecast
Issued by NWS Sioux Falls, SD

Home | Current Version | Previous Version | Text Only | Print | Product List | Glossary On
Versions: 1 2 3 4 5 6 7 8 9 10 11 12 13 14
000
FTUS43 KFSD 172300
TAFFSD
TAF
KFSD 172331Z 1800/1824 10005KT P6SM BKN100
     FM180600 11010KT P6SM BKN150
     FM181000 11013KT P6SM OVC090
     FM181500 15016G23KT P6SM BKN080
     FM181800 16023G32KT P6SM SCT200=

USA.gov is the U.S. government's official web portal to all federal, state and local government web resources and services.